FDX5775 ZGGG-RPLC
Flight info
| Callsign | FDX5775 |
|---|---|
| Flight time | 1h 42m |
| Altitude | 39100 |
| Route | SAREX9 SAREX W6 NLG W18 TAMOT/N0482F390 B330 BIGEX A461 SANRO W4 MALIB MALIB7R |
| Aircraft | MD11/H-SDE1E2E3FGHIJ2J3J4J5M1RWXY/LB1D1 |
Departure
| Time | 2026-05-05 07:18 |
|---|---|
| Airport | Guangzhou Baiyun International Airport (ZGGG) |
Arrival
| Time | 2026-05-05 09:01 |
|---|---|
| Airport | Clark International Airport / Clark Air Base (RPLC) |
| Time | Latitude | Longitude | Altitude | Speed | Heading |
|---|---|---|---|---|---|
| 2026-05-05 06:47 | 23.41311 | 113.29709 | 57 ft | 0 kts | 104° |
| 2026-05-05 07:02 | 23.41312 | 113.29702 | 58 ft | 2 kts | 104° |
| 2026-05-05 07:03 | 23.41316 | 113.29687 | 58 ft | 2 kts | 104° |
| 2026-05-05 07:03 | 23.41320 | 113.29671 | 58 ft | 2 kts | 104° |
| 2026-05-05 07:03 | 23.41324 | 113.29655 | 58 ft | 2 kts | 104° |
| 2026-05-05 07:03 | 23.41327 | 113.29639 | 58 ft | 2 kts | 104° |
| 2026-05-05 07:04 | 23.41333 | 113.29624 | 58 ft | 2 kts | 137° |
| 2026-05-05 07:04 | 23.41346 | 113.29617 | 58 ft | 2 kts | 173° |
| 2026-05-05 07:04 | 23.41354 | 113.29617 | 58 ft | 0 kts | 194° |
| 2026-05-05 07:04 | 23.41358 | 113.29619 | 58 ft | 0 kts | 193° |
| 2026-05-05 07:05 | 23.41358 | 113.29618 | 58 ft | 0 kts | 193° |
| 2026-05-05 07:06 | 23.41352 | 113.29617 | 58 ft | 3 kts | 193° |
| 2026-05-05 07:06 | 23.41303 | 113.29604 | 58 ft | 10 kts | 193° |
| 2026-05-05 07:07 | 23.41212 | 113.29582 | 58 ft | 15 kts | 193° |
| 2026-05-05 07:07 | 23.41095 | 113.29552 | 58 ft | 19 kts | 193° |
| 2026-05-05 07:07 | 23.40951 | 113.29511 | 58 ft | 23 kts | 195° |
| 2026-05-05 07:07 | 23.40781 | 113.29466 | 58 ft | 23 kts | 193° |
| 2026-05-05 07:08 | 23.40688 | 113.29474 | 58 ft | 14 kts | 118° |
| 2026-05-05 07:08 | 23.40658 | 113.29592 | 58 ft | 18 kts | 103° |
| 2026-05-05 07:08 | 23.40625 | 113.29739 | 58 ft | 22 kts | 103° |
| 2026-05-05 07:08 | 23.40585 | 113.29913 | 58 ft | 25 kts | 103° |
| 2026-05-05 07:09 | 23.40540 | 113.30109 | 58 ft | 27 kts | 104° |
| 2026-05-05 07:09 | 23.40488 | 113.30319 | 58 ft | 30 kts | 104° |
| 2026-05-05 07:09 | 23.40440 | 113.30554 | 58 ft | 32 kts | 102° |
| 2026-05-05 07:09 | 23.40383 | 113.30799 | 58 ft | 34 kts | 103° |
| 2026-05-05 07:10 | 23.40338 | 113.30981 | 58 ft | 20 kts | 107° |
| 2026-05-05 07:10 | 23.40255 | 113.31060 | 58 ft | 18 kts | 188° |
| 2026-05-05 07:10 | 23.40120 | 113.31016 | 58 ft | 21 kts | 193° |
| 2026-05-05 07:10 | 23.39962 | 113.30978 | 58 ft | 24 kts | 192° |
| 2026-05-05 07:11 | 23.39806 | 113.30936 | 58 ft | 23 kts | 194° |
| 2026-05-05 07:11 | 23.39633 | 113.30889 | 58 ft | 26 kts | 194° |
| 2026-05-05 07:11 | 23.39441 | 113.30836 | 58 ft | 29 kts | 194° |
| 2026-05-05 07:11 | 23.39230 | 113.30778 | 58 ft | 32 kts | 194° |
| 2026-05-05 07:12 | 23.39045 | 113.30729 | 58 ft | 26 kts | 193° |
| 2026-05-05 07:12 | 23.38856 | 113.30679 | 58 ft | 29 kts | 193° |
| 2026-05-05 07:12 | 23.38648 | 113.30624 | 58 ft | 31 kts | 194° |
| 2026-05-05 07:12 | 23.38425 | 113.30558 | 58 ft | 34 kts | 194° |
| 2026-05-05 07:13 | 23.38208 | 113.30502 | 58 ft | 24 kts | 193° |
| 2026-05-05 07:13 | 23.38029 | 113.30456 | 58 ft | 27 kts | 193° |
| 2026-05-05 07:13 | 23.37850 | 113.30409 | 58 ft | 27 kts | 194° |
| 2026-05-05 07:13 | 23.37661 | 113.30362 | 58 ft | 20 kts | 175° |
| 2026-05-05 07:14 | 23.37602 | 113.30450 | 58 ft | 14 kts | 100° |
| 2026-05-05 07:14 | 23.37583 | 113.30566 | 58 ft | 15 kts | 107° |
| 2026-05-05 07:14 | 23.37545 | 113.30687 | 58 ft | 16 kts | 118° |
| 2026-05-05 07:14 | 23.37513 | 113.30711 | 58 ft | 0 kts | 182° |
| 2026-05-05 07:15 | 23.37512 | 113.30711 | 58 ft | 1 kts | 182° |
| 2026-05-05 07:15 | 23.37491 | 113.30710 | 58 ft | 5 kts | 185° |
| 2026-05-05 07:15 | 23.37439 | 113.30698 | 58 ft | 9 kts | 193° |
| 2026-05-05 07:15 | 23.37353 | 113.30676 | 58 ft | 15 kts | 193° |
| 2026-05-05 07:16 | 23.37228 | 113.30643 | 58 ft | 20 kts | 193° |
| 2026-05-05 07:16 | 23.37086 | 113.30605 | 58 ft | 15 kts | 194° |
| 2026-05-05 07:16 | 23.37011 | 113.30602 | 58 ft | 8 kts | 137° |
| 2026-05-05 07:16 | 23.36992 | 113.30666 | 58 ft | 10 kts | 103° |
| 2026-05-05 07:17 | 23.36979 | 113.30743 | 58 ft | 7 kts | 80° |
| 2026-05-05 07:17 | 23.37018 | 113.30785 | 58 ft | 8 kts | 15° |
| 2026-05-05 07:17 | 23.37088 | 113.30803 | 58 ft | 12 kts | 13° |
| 2026-05-05 07:17 | 23.37411 | 113.30891 | 58 ft | 94 kts | 14° |
| 2026-05-05 07:18 | 23.38339 | 113.31144 | 59 ft | 176 kts | 14° |
| 2026-05-05 07:18 | 23.39664 | 113.31513 | 630 ft | 199 kts | 15° |
| 2026-05-05 07:18 | 23.40912 | 113.31960 | 1700 ft | 193 kts | 23° |
| 2026-05-05 07:18 | 23.42099 | 113.32616 | 2698 ft | 196 kts | 32° |
| 2026-05-05 07:19 | 23.43263 | 113.33401 | 3505 ft | 207 kts | 32° |
| 2026-05-05 07:19 | 23.44563 | 113.34260 | 3942 ft | 232 kts | 30° |
| 2026-05-05 07:19 | 23.46020 | 113.35164 | 4504 ft | 248 kts | 28° |
| 2026-05-05 07:19 | 23.47559 | 113.36082 | 5159 ft | 260 kts | 27° |
| 2026-05-05 07:20 | 23.49179 | 113.37034 | 5890 ft | 268 kts | 26° |
| 2026-05-05 07:20 | 23.50830 | 113.38003 | 6691 ft | 276 kts | 25° |
| 2026-05-05 07:20 | 23.52584 | 113.38805 | 7842 ft | 274 kts | 13° |
| 2026-05-05 07:20 | 23.54484 | 113.39214 | 8600 ft | 285 kts | 1° |
| 2026-05-05 07:21 | 23.56491 | 113.39318 | 9449 ft | 294 kts | 356° |
| 2026-05-05 07:21 | 23.58544 | 113.39162 | 10264 ft | 299 kts | 342° |
| 2026-05-05 07:21 | 23.60486 | 113.38247 | 10897 ft | 309 kts | 319° |
| 2026-05-05 07:21 | 23.61986 | 113.36593 | 11830 ft | 316 kts | 302° |
| 2026-05-05 07:22 | 23.63061 | 113.34430 | 12316 ft | 341 kts | 291° |
| 2026-05-05 07:22 | 23.63974 | 113.31904 | 12714 ft | 372 kts | 289° |
| 2026-05-05 07:22 | 23.64909 | 113.29230 | 13564 ft | 386 kts | 289° |
| 2026-05-05 07:22 | 23.65732 | 113.26419 | 14602 ft | 394 kts | 282° |
| 2026-05-05 07:23 | 23.66112 | 113.23456 | 15738 ft | 399 kts | 272° |
| 2026-05-05 07:23 | 23.65968 | 113.20439 | 16851 ft | 404 kts | 262° |
| 2026-05-05 07:23 | 23.65382 | 113.17474 | 17876 ft | 410 kts | 255° |
| 2026-05-05 07:23 | 23.64211 | 113.14614 | 18897 ft | 419 kts | 242° |
| 2026-05-05 07:24 | 23.62431 | 113.12057 | 19832 ft | 431 kts | 230° |
| 2026-05-05 07:24 | 23.60088 | 113.09913 | 20743 ft | 445 kts | 218° |
| 2026-05-05 07:24 | 23.57303 | 113.08386 | 21588 ft | 461 kts | 205° |
| 2026-05-05 07:24 | 23.54115 | 113.07539 | 22402 ft | 477 kts | 192° |
| 2026-05-05 07:25 | 23.50771 | 113.07391 | 23233 ft | 490 kts | 184° |
| 2026-05-05 07:25 | 23.47322 | 113.07557 | 24074 ft | 497 kts | 182° |
| 2026-05-05 07:25 | 23.43874 | 113.07703 | 24900 ft | 502 kts | 184° |
| 2026-05-05 07:25 | 23.40324 | 113.07772 | 25740 ft | 506 kts | 185° |
| 2026-05-05 07:26 | 23.36774 | 113.07825 | 26524 ft | 512 kts | 185° |
| 2026-05-05 07:26 | 23.33177 | 113.07889 | 27300 ft | 518 kts | 185° |
| 2026-05-05 07:26 | 23.29588 | 113.07998 | 28175 ft | 523 kts | 183° |
| 2026-05-05 07:26 | 23.25938 | 113.08485 | 29209 ft | 530 kts | 175° |
| 2026-05-05 07:27 | 23.22348 | 113.09489 | 30269 ft | 535 kts | 168° |
| 2026-05-05 07:27 | 23.18853 | 113.10962 | 31268 ft | 538 kts | 162° |
| 2026-05-05 07:27 | 23.15509 | 113.12620 | 32257 ft | 537 kts | 161° |
| 2026-05-05 07:27 | 23.12123 | 113.14336 | 33300 ft | 533 kts | 161° |
| 2026-05-05 07:28 | 23.08761 | 113.15992 | 34277 ft | 530 kts | 162° |
| 2026-05-05 07:28 | 23.05380 | 113.17686 | 35202 ft | 530 kts | 157° |
| 2026-05-05 07:28 | 23.02265 | 113.19741 | 36073 ft | 532 kts | 149° |
| 2026-05-05 07:28 | 22.99335 | 113.22278 | 36889 ft | 535 kts | 141° |
| 2026-05-05 07:29 | 22.96767 | 113.25166 | 37594 ft | 536 kts | 134° |
| 2026-05-05 07:29 | 22.94200 | 113.28110 | 38191 ft | 532 kts | 141° |
| 2026-05-05 07:29 | 22.91449 | 113.30746 | 38880 ft | 529 kts | 143° |
| 2026-05-05 07:30 | 22.85866 | 113.35976 | 38889 ft | 528 kts | 141° |
| 2026-05-05 07:30 | 22.77939 | 113.44074 | 38928 ft | 524 kts | 140° |
| 2026-05-05 07:31 | 22.72615 | 113.49435 | 38941 ft | 526 kts | 141° |
| 2026-05-05 07:31 | 22.67405 | 113.54710 | 38946 ft | 527 kts | 140° |
| 2026-05-05 07:32 | 22.62063 | 113.60111 | 38953 ft | 526 kts | 140° |
| 2026-05-05 07:32 | 22.56720 | 113.65501 | 38951 ft | 526 kts | 140° |
| 2026-05-05 07:33 | 22.51522 | 113.70781 | 38942 ft | 525 kts | 141° |
| 2026-05-05 07:33 | 22.46490 | 113.75846 | 38940 ft | 525 kts | 140° |
| 2026-05-05 07:34 | 22.41143 | 113.81288 | 38951 ft | 524 kts | 140° |
| 2026-05-05 07:34 | 22.35948 | 113.86649 | 38948 ft | 525 kts | 137° |
| 2026-05-05 07:35 | 22.31123 | 113.92334 | 38955 ft | 526 kts | 134° |
| 2026-05-05 07:35 | 22.26494 | 113.98051 | 38951 ft | 526 kts | 135° |
| 2026-05-05 07:36 | 22.21754 | 114.03783 | 38949 ft | 525 kts | 135° |
| 2026-05-05 07:36 | 22.17028 | 114.09471 | 38944 ft | 525 kts | 135° |
| 2026-05-05 07:37 | 22.14641 | 114.12371 | 39252 ft | 527 kts | 134° |
| 2026-05-05 07:37 | 22.12190 | 114.15338 | 39847 ft | 527 kts | 135° |
| 2026-05-05 07:37 | 22.09837 | 114.18179 | 40311 ft | 527 kts | 134° |
| 2026-05-05 07:37 | 22.07418 | 114.21116 | 40867 ft | 526 kts | 134° |
| 2026-05-05 07:38 | 22.02602 | 114.26966 | 40886 ft | 525 kts | 134° |
| 2026-05-05 07:38 | 21.97809 | 114.32771 | 40910 ft | 521 kts | 134° |
| 2026-05-05 07:39 | 21.93001 | 114.38615 | 40927 ft | 521 kts | 134° |
| 2026-05-05 07:39 | 21.88184 | 114.44457 | 40927 ft | 521 kts | 134° |
| 2026-05-05 07:40 | 21.83345 | 114.50346 | 40932 ft | 521 kts | 134° |
| 2026-05-05 07:40 | 21.78544 | 114.56169 | 40935 ft | 521 kts | 134° |
| 2026-05-05 07:41 | 21.73735 | 114.61989 | 40931 ft | 520 kts | 134° |
| 2026-05-05 07:41 | 21.68870 | 114.67764 | 40923 ft | 519 kts | 134° |
| 2026-05-05 07:42 | 21.64078 | 114.73517 | 40924 ft | 519 kts | 135° |
| 2026-05-05 07:42 | 21.59240 | 114.79279 | 40930 ft | 519 kts | 134° |
| 2026-05-05 07:43 | 21.54402 | 114.85094 | 40928 ft | 519 kts | 134° |
| 2026-05-05 07:43 | 21.49585 | 114.90837 | 40931 ft | 519 kts | 134° |
| 2026-05-05 07:44 | 21.44762 | 114.96636 | 40934 ft | 518 kts | 134° |
| 2026-05-05 07:44 | 21.39959 | 115.02374 | 40927 ft | 517 kts | 134° |
| 2026-05-05 07:45 | 21.35174 | 115.08127 | 40930 ft | 517 kts | 134° |
| 2026-05-05 07:45 | 21.30361 | 115.13885 | 40930 ft | 517 kts | 134° |
| 2026-05-05 07:46 | 21.25563 | 115.19654 | 40929 ft | 517 kts | 134° |
| 2026-05-05 07:46 | 21.20765 | 115.25401 | 40930 ft | 518 kts | 134° |
| 2026-05-05 07:47 | 21.15913 | 115.31127 | 40926 ft | 517 kts | 135° |
| 2026-05-05 07:47 | 21.11112 | 115.36801 | 40929 ft | 516 kts | 134° |
| 2026-05-05 07:48 | 21.06271 | 115.42513 | 40924 ft | 515 kts | 134° |
| 2026-05-05 07:48 | 21.01483 | 115.48181 | 40929 ft | 515 kts | 134° |
| 2026-05-05 07:49 | 20.96675 | 115.53858 | 40928 ft | 515 kts | 134° |
| 2026-05-05 07:49 | 20.91851 | 115.59576 | 40925 ft | 515 kts | 134° |
| 2026-05-05 07:50 | 20.87047 | 115.65251 | 40921 ft | 515 kts | 134° |
| 2026-05-05 07:50 | 20.82250 | 115.70942 | 40912 ft | 514 kts | 134° |
| 2026-05-05 07:51 | 20.77453 | 115.76612 | 40910 ft | 514 kts | 134° |
| 2026-05-05 07:51 | 20.72673 | 115.82291 | 40914 ft | 514 kts | 134° |
| 2026-05-05 07:52 | 20.67885 | 115.87946 | 40915 ft | 513 kts | 134° |
| 2026-05-05 07:52 | 20.63113 | 115.93600 | 40917 ft | 513 kts | 135° |
| 2026-05-05 07:53 | 20.58251 | 115.99233 | 40916 ft | 512 kts | 134° |
| 2026-05-05 07:53 | 20.53494 | 116.04813 | 40917 ft | 511 kts | 134° |
| 2026-05-05 07:54 | 20.48676 | 116.10415 | 40918 ft | 510 kts | 134° |
| 2026-05-05 07:54 | 20.43901 | 116.16021 | 40916 ft | 510 kts | 134° |
| 2026-05-05 07:55 | 20.39111 | 116.21595 | 40919 ft | 510 kts | 134° |
| 2026-05-05 07:55 | 20.34340 | 116.27196 | 40913 ft | 509 kts | 134° |
| 2026-05-05 07:56 | 20.29576 | 116.32745 | 40912 ft | 509 kts | 134° |
| 2026-05-05 07:56 | 20.24789 | 116.38368 | 40912 ft | 509 kts | 134° |
| 2026-05-05 07:57 | 20.20026 | 116.43926 | 40907 ft | 508 kts | 134° |
| 2026-05-05 07:57 | 20.15300 | 116.49477 | 40903 ft | 508 kts | 134° |
| 2026-05-05 07:58 | 20.10547 | 116.55032 | 40901 ft | 507 kts | 134° |
| 2026-05-05 07:58 | 20.05794 | 116.60565 | 40898 ft | 506 kts | 134° |
| 2026-05-05 07:59 | 20.01025 | 116.66037 | 40893 ft | 506 kts | 134° |
| 2026-05-05 07:59 | 19.96239 | 116.71577 | 40891 ft | 506 kts | 135° |
| 2026-05-05 08:00 | 19.91471 | 116.77069 | 40888 ft | 506 kts | 134° |
| 2026-05-05 08:00 | 19.86698 | 116.82598 | 40885 ft | 505 kts | 135° |
| 2026-05-05 08:01 | 19.81957 | 116.88062 | 40890 ft | 505 kts | 134° |
| 2026-05-05 08:01 | 19.77200 | 116.93575 | 40888 ft | 504 kts | 134° |
| 2026-05-05 08:02 | 19.72450 | 116.99056 | 40887 ft | 505 kts | 134° |
| 2026-05-05 08:02 | 19.67732 | 117.04527 | 40889 ft | 505 kts | 134° |
| 2026-05-05 08:03 | 19.62964 | 117.10036 | 40891 ft | 505 kts | 134° |
| 2026-05-05 08:03 | 19.58236 | 117.15517 | 40890 ft | 504 kts | 134° |
| 2026-05-05 08:04 | 19.53517 | 117.20976 | 40886 ft | 504 kts | 134° |
| 2026-05-05 08:04 | 19.48769 | 117.26414 | 40884 ft | 503 kts | 135° |
| 2026-05-05 08:05 | 19.44000 | 117.31842 | 40882 ft | 503 kts | 134° |
| 2026-05-05 08:05 | 19.39250 | 117.37273 | 40883 ft | 503 kts | 134° |
| 2026-05-05 08:06 | 19.34476 | 117.42721 | 40887 ft | 503 kts | 134° |
| 2026-05-05 08:06 | 19.29719 | 117.48163 | 40879 ft | 503 kts | 134° |
| 2026-05-05 08:07 | 19.24986 | 117.53567 | 40877 ft | 503 kts | 134° |
| 2026-05-05 08:07 | 19.20228 | 117.59010 | 40879 ft | 503 kts | 134° |
| 2026-05-05 08:08 | 19.15493 | 117.64421 | 40875 ft | 502 kts | 134° |
| 2026-05-05 08:08 | 19.10744 | 117.69858 | 40869 ft | 502 kts | 135° |
| 2026-05-05 08:09 | 19.06013 | 117.75273 | 40871 ft | 502 kts | 134° |
| 2026-05-05 08:09 | 19.01275 | 117.80697 | 40875 ft | 502 kts | 134° |
| 2026-05-05 08:10 | 18.96561 | 117.86098 | 40877 ft | 502 kts | 134° |
| 2026-05-05 08:10 | 18.91802 | 117.91476 | 40875 ft | 501 kts | 135° |
| 2026-05-05 08:11 | 18.87002 | 117.96890 | 40872 ft | 502 kts | 134° |
| 2026-05-05 08:11 | 18.82236 | 118.02276 | 40868 ft | 502 kts | 135° |
| 2026-05-05 08:12 | 18.77470 | 118.07657 | 40864 ft | 502 kts | 134° |
| 2026-05-05 08:12 | 18.72721 | 118.13032 | 40863 ft | 503 kts | 135° |
| 2026-05-05 08:13 | 18.67911 | 118.18463 | 40859 ft | 503 kts | 134° |
| 2026-05-05 08:13 | 18.63166 | 118.23839 | 40857 ft | 502 kts | 135° |
| 2026-05-05 08:14 | 18.58385 | 118.29246 | 40855 ft | 502 kts | 134° |
| 2026-05-05 08:14 | 18.53619 | 118.34642 | 40848 ft | 503 kts | 135° |
| 2026-05-05 08:15 | 18.48874 | 118.40012 | 40844 ft | 502 kts | 134° |
| 2026-05-05 08:15 | 18.44105 | 118.45416 | 40844 ft | 502 kts | 135° |
| 2026-05-05 08:16 | 18.39353 | 118.50800 | 40845 ft | 502 kts | 134° |
| 2026-05-05 08:16 | 18.34569 | 118.56136 | 40846 ft | 502 kts | 135° |
| 2026-05-05 08:17 | 18.29781 | 118.61492 | 40845 ft | 502 kts | 135° |
| 2026-05-05 08:17 | 18.25012 | 118.66820 | 40841 ft | 502 kts | 135° |
| 2026-05-05 08:18 | 18.20221 | 118.72186 | 40838 ft | 501 kts | 135° |
| 2026-05-05 08:18 | 18.15470 | 118.77492 | 40842 ft | 501 kts | 135° |
| 2026-05-05 08:19 | 18.10708 | 118.82830 | 40840 ft | 501 kts | 135° |
| 2026-05-05 08:19 | 18.05918 | 118.88187 | 40837 ft | 500 kts | 135° |
| 2026-05-05 08:20 | 18.01179 | 118.93500 | 40834 ft | 500 kts | 135° |
| 2026-05-05 08:20 | 17.96401 | 118.98847 | 40829 ft | 500 kts | 135° |
| 2026-05-05 08:21 | 17.91653 | 119.04175 | 40824 ft | 500 kts | 135° |
| 2026-05-05 08:21 | 17.86891 | 119.09509 | 40822 ft | 501 kts | 135° |
| 2026-05-05 08:22 | 17.82146 | 119.14831 | 40819 ft | 500 kts | 135° |
| 2026-05-05 08:22 | 17.77364 | 119.20106 | 40819 ft | 499 kts | 135° |
| 2026-05-05 08:23 | 17.72594 | 119.25396 | 40826 ft | 499 kts | 135° |
| 2026-05-05 08:23 | 17.67809 | 119.30677 | 40832 ft | 499 kts | 135° |
| 2026-05-05 08:24 | 17.63033 | 119.35981 | 40835 ft | 499 kts | 135° |
| 2026-05-05 08:24 | 17.58258 | 119.41258 | 40839 ft | 499 kts | 135° |
| 2026-05-05 08:25 | 17.53507 | 119.46537 | 40839 ft | 499 kts | 135° |
| 2026-05-05 08:25 | 17.48696 | 119.51852 | 40844 ft | 499 kts | 135° |
| 2026-05-05 08:26 | 17.43934 | 119.57148 | 40836 ft | 499 kts | 135° |
| 2026-05-05 08:26 | 17.39171 | 119.62418 | 40837 ft | 498 kts | 135° |
| 2026-05-05 08:27 | 17.34440 | 119.67679 | 40827 ft | 497 kts | 135° |
| 2026-05-05 08:27 | 17.29709 | 119.72929 | 40485 ft | 495 kts | 135° |
| 2026-05-05 08:28 | 17.27337 | 119.75548 | 39401 ft | 499 kts | 135° |
| 2026-05-05 08:28 | 17.24963 | 119.78213 | 38420 ft | 500 kts | 135° |
| 2026-05-05 08:28 | 17.22579 | 119.80866 | 37477 ft | 501 kts | 135° |
| 2026-05-05 08:28 | 17.20182 | 119.83490 | 36602 ft | 501 kts | 136° |
| 2026-05-05 08:29 | 17.17794 | 119.86108 | 35706 ft | 501 kts | 135° |
| 2026-05-05 08:29 | 17.15404 | 119.88748 | 34821 ft | 501 kts | 135° |
| 2026-05-05 08:29 | 17.13010 | 119.91388 | 33887 ft | 502 kts | 136° |
| 2026-05-05 08:30 | 17.08189 | 119.96670 | 32032 ft | 505 kts | 135° |
| 2026-05-05 08:30 | 17.05758 | 119.99348 | 31133 ft | 507 kts | 135° |
| 2026-05-05 08:30 | 17.03311 | 120.02045 | 30188 ft | 509 kts | 135° |
| 2026-05-05 08:30 | 17.00891 | 120.04701 | 29226 ft | 511 kts | 135° |
| 2026-05-05 08:31 | 16.98426 | 120.07406 | 28186 ft | 515 kts | 135° |
| 2026-05-05 08:31 | 16.95974 | 120.10106 | 27211 ft | 516 kts | 135° |
| 2026-05-05 08:31 | 16.93506 | 120.12826 | 26149 ft | 518 kts | 135° |
| 2026-05-05 08:31 | 16.91021 | 120.15554 | 25097 ft | 519 kts | 134° |
| 2026-05-05 08:32 | 16.88547 | 120.18272 | 24379 ft | 513 kts | 134° |
| 2026-05-05 08:32 | 16.86102 | 120.20959 | 23659 ft | 507 kts | 134° |
| 2026-05-05 08:32 | 16.83703 | 120.23594 | 22932 ft | 501 kts | 134° |
| 2026-05-05 08:32 | 16.81322 | 120.26209 | 22221 ft | 495 kts | 134° |
| 2026-05-05 08:33 | 16.78974 | 120.28794 | 21523 ft | 489 kts | 134° |
| 2026-05-05 08:33 | 16.76633 | 120.31370 | 20810 ft | 484 kts | 135° |
| 2026-05-05 08:33 | 16.74172 | 120.33702 | 20079 ft | 477 kts | 144° |
| 2026-05-05 08:33 | 16.71373 | 120.35470 | 19401 ft | 470 kts | 156° |
| 2026-05-05 08:34 | 16.68284 | 120.36578 | 18712 ft | 463 kts | 167° |
| 2026-05-05 08:34 | 16.65137 | 120.37122 | 18022 ft | 458 kts | 174° |
| 2026-05-05 08:34 | 16.61953 | 120.37444 | 17303 ft | 453 kts | 175° |
| 2026-05-05 08:34 | 16.58817 | 120.37726 | 16630 ft | 448 kts | 175° |
| 2026-05-05 08:35 | 16.55727 | 120.38048 | 15975 ft | 443 kts | 174° |
| 2026-05-05 08:35 | 16.52675 | 120.38421 | 15307 ft | 439 kts | 173° |
| 2026-05-05 08:35 | 16.49689 | 120.38818 | 14665 ft | 435 kts | 172° |
| 2026-05-05 08:35 | 16.46702 | 120.39230 | 13987 ft | 431 kts | 172° |
| 2026-05-05 08:36 | 16.43708 | 120.39645 | 13349 ft | 426 kts | 172° |
| 2026-05-05 08:36 | 16.40809 | 120.40037 | 12704 ft | 422 kts | 172° |
| 2026-05-05 08:36 | 16.37874 | 120.40426 | 12061 ft | 417 kts | 172° |
| 2026-05-05 08:36 | 16.35025 | 120.40802 | 11569 ft | 410 kts | 172° |
| 2026-05-05 08:37 | 16.32224 | 120.41171 | 11396 ft | 395 kts | 172° |
| 2026-05-05 08:37 | 16.29542 | 120.41529 | 11218 ft | 381 kts | 172° |
| 2026-05-05 08:37 | 16.26943 | 120.41872 | 11060 ft | 368 kts | 172° |
| 2026-05-05 08:37 | 16.24432 | 120.42201 | 10898 ft | 356 kts | 172° |
| 2026-05-05 08:38 | 16.21999 | 120.42521 | 10759 ft | 345 kts | 172° |
| 2026-05-05 08:38 | 16.19645 | 120.42836 | 10620 ft | 335 kts | 172° |
| 2026-05-05 08:38 | 16.17374 | 120.43137 | 10476 ft | 326 kts | 171° |
| 2026-05-05 08:38 | 16.15159 | 120.43429 | 10334 ft | 317 kts | 171° |
| 2026-05-05 08:39 | 16.12992 | 120.43714 | 10193 ft | 308 kts | 171° |
| 2026-05-05 08:39 | 16.10869 | 120.43993 | 10058 ft | 300 kts | 172° |
| 2026-05-05 08:39 | 16.08816 | 120.44264 | 9891 ft | 294 kts | 172° |
| 2026-05-05 08:39 | 16.06786 | 120.44531 | 9839 ft | 292 kts | 171° |
| 2026-05-05 08:40 | 16.04763 | 120.44801 | 9767 ft | 292 kts | 172° |
| 2026-05-05 08:40 | 16.02734 | 120.45069 | 9441 ft | 293 kts | 172° |
| 2026-05-05 08:40 | 16.00721 | 120.45334 | 9152 ft | 292 kts | 172° |
| 2026-05-05 08:40 | 15.98677 | 120.45601 | 8633 ft | 302 kts | 171° |
| 2026-05-05 08:41 | 15.96574 | 120.45880 | 8073 ft | 310 kts | 171° |
| 2026-05-05 08:41 | 15.94401 | 120.46170 | 7627 ft | 314 kts | 171° |
| 2026-05-05 08:41 | 15.92233 | 120.46455 | 7309 ft | 313 kts | 171° |
| 2026-05-05 08:41 | 15.90071 | 120.46738 | 7063 ft | 309 kts | 171° |
| 2026-05-05 08:42 | 15.87951 | 120.47021 | 6806 ft | 306 kts | 171° |
| 2026-05-05 08:42 | 15.85833 | 120.47304 | 6520 ft | 305 kts | 170° |
| 2026-05-05 08:42 | 15.83765 | 120.47573 | 6350 ft | 292 kts | 171° |
| 2026-05-05 08:42 | 15.81742 | 120.47786 | 5979 ft | 287 kts | 177° |
| 2026-05-05 08:43 | 15.79763 | 120.47736 | 5591 ft | 286 kts | 182° |
| 2026-05-05 08:43 | 15.77786 | 120.47522 | 5212 ft | 283 kts | 185° |
| 2026-05-05 08:43 | 15.75838 | 120.47236 | 4815 ft | 281 kts | 187° |
| 2026-05-05 08:43 | 15.73898 | 120.46918 | 4415 ft | 279 kts | 187° |
| 2026-05-05 08:44 | 15.71972 | 120.46589 | 4012 ft | 278 kts | 188° |
| 2026-05-05 08:44 | 15.70074 | 120.46267 | 3881 ft | 276 kts | 187° |
| 2026-05-05 08:44 | 15.68165 | 120.45942 | 3871 ft | 278 kts | 187° |
| 2026-05-05 08:44 | 15.66237 | 120.45716 | 3864 ft | 277 kts | 182° |
| 2026-05-05 08:45 | 15.64304 | 120.45647 | 3870 ft | 276 kts | 179° |
| 2026-05-05 08:45 | 15.62364 | 120.45664 | 3997 ft | 279 kts | 177° |
| 2026-05-05 08:45 | 15.60473 | 120.45716 | 3957 ft | 263 kts | 176° |
| 2026-05-05 08:45 | 15.58677 | 120.45773 | 3905 ft | 253 kts | 176° |
| 2026-05-05 08:46 | 15.56912 | 120.45831 | 3848 ft | 246 kts | 176° |
| 2026-05-05 08:46 | 15.55209 | 120.45884 | 3831 ft | 244 kts | 176° |
| 2026-05-05 08:46 | 15.53509 | 120.45931 | 3834 ft | 244 kts | 176° |
| 2026-05-05 08:46 | 15.51806 | 120.45972 | 3834 ft | 244 kts | 176° |
| 2026-05-05 08:47 | 15.50110 | 120.46005 | 3842 ft | 243 kts | 176° |
| 2026-05-05 08:47 | 15.48416 | 120.46038 | 3847 ft | 242 kts | 177° |
| 2026-05-05 08:47 | 15.46721 | 120.46067 | 3853 ft | 242 kts | 177° |
| 2026-05-05 08:47 | 15.45009 | 120.46093 | 3851 ft | 242 kts | 177° |
| 2026-05-05 08:48 | 15.43315 | 120.46117 | 3848 ft | 243 kts | 177° |
| 2026-05-05 08:48 | 15.41614 | 120.46142 | 3847 ft | 244 kts | 177° |
| 2026-05-05 08:48 | 15.39913 | 120.46171 | 3855 ft | 244 kts | 177° |
| 2026-05-05 08:48 | 15.38205 | 120.46203 | 3850 ft | 245 kts | 177° |
| 2026-05-05 08:49 | 15.36487 | 120.46238 | 3846 ft | 245 kts | 177° |
| 2026-05-05 08:49 | 15.34783 | 120.46269 | 3852 ft | 245 kts | 177° |
| 2026-05-05 08:49 | 15.33073 | 120.46300 | 3856 ft | 244 kts | 176° |
| 2026-05-05 08:49 | 15.31371 | 120.46326 | 3853 ft | 244 kts | 177° |
| 2026-05-05 08:50 | 15.29653 | 120.46349 | 3859 ft | 244 kts | 177° |
| 2026-05-05 08:50 | 15.27948 | 120.46366 | 3861 ft | 243 kts | 177° |
| 2026-05-05 08:50 | 15.26264 | 120.46384 | 3857 ft | 243 kts | 177° |
| 2026-05-05 08:50 | 15.24570 | 120.46446 | 3823 ft | 242 kts | 168° |
| 2026-05-05 08:51 | 15.22998 | 120.47018 | 3847 ft | 239 kts | 150° |
| 2026-05-05 08:51 | 15.21595 | 120.47913 | 3854 ft | 237 kts | 142° |
| 2026-05-05 08:51 | 15.20267 | 120.48953 | 3850 ft | 237 kts | 139° |
| 2026-05-05 08:51 | 15.18994 | 120.50053 | 3856 ft | 237 kts | 137° |
| 2026-05-05 08:52 | 15.17764 | 120.51163 | 3858 ft | 237 kts | 136° |
| 2026-05-05 08:52 | 15.16507 | 120.52317 | 3859 ft | 237 kts | 136° |
| 2026-05-05 08:52 | 15.15271 | 120.53457 | 3855 ft | 237 kts | 136° |
| 2026-05-05 08:52 | 15.14044 | 120.54588 | 3855 ft | 237 kts | 136° |
| 2026-05-05 08:53 | 15.12798 | 120.55726 | 3857 ft | 237 kts | 136° |
| 2026-05-05 08:53 | 15.11581 | 120.56827 | 3835 ft | 230 kts | 136° |
| 2026-05-05 08:53 | 15.10396 | 120.57886 | 3812 ft | 219 kts | 136° |
| 2026-05-05 08:53 | 15.09246 | 120.58907 | 3825 ft | 213 kts | 137° |
| 2026-05-05 08:54 | 15.08111 | 120.59895 | 3822 ft | 215 kts | 140° |
| 2026-05-05 08:54 | 15.06724 | 120.60421 | 3895 ft | 216 kts | 172° |
| 2026-05-05 08:54 | 15.05240 | 120.60345 | 3662 ft | 215 kts | 186° |
| 2026-05-05 08:54 | 15.03762 | 120.60010 | 3124 ft | 216 kts | 193° |
| 2026-05-05 08:55 | 15.02298 | 120.59546 | 3040 ft | 220 kts | 196° |
| 2026-05-05 08:55 | 15.00828 | 120.59014 | 3047 ft | 223 kts | 197° |
| 2026-05-05 08:55 | 14.99554 | 120.58107 | 3024 ft | 225 kts | 230° |
| 2026-05-05 08:55 | 14.98950 | 120.56617 | 3012 ft | 228 kts | 263° |
| 2026-05-05 08:56 | 14.99108 | 120.55010 | 2996 ft | 228 kts | 286° |
| 2026-05-05 08:56 | 14.99659 | 120.53465 | 2993 ft | 225 kts | 296° |
| 2026-05-05 08:56 | 15.00352 | 120.52026 | 2990 ft | 225 kts | 300° |
| 2026-05-05 08:56 | 15.01148 | 120.50629 | 2956 ft | 225 kts | 308° |
| 2026-05-05 08:57 | 15.02391 | 120.49791 | 3002 ft | 214 kts | 349° |
| 2026-05-05 08:57 | 15.03824 | 120.49878 | 2943 ft | 194 kts | 20° |
| 2026-05-05 08:57 | 15.04992 | 120.50413 | 2918 ft | 178 kts | 30° |
| 2026-05-05 08:57 | 15.06049 | 120.51016 | 2909 ft | 169 kts | 30° |
| 2026-05-05 08:58 | 15.07090 | 120.51577 | 2805 ft | 168 kts | 27° |
| 2026-05-05 08:58 | 15.08136 | 120.52072 | 2589 ft | 165 kts | 24° |
| 2026-05-05 08:58 | 15.09200 | 120.52518 | 2352 ft | 163 kts | 22° |
| 2026-05-05 08:58 | 15.10268 | 120.52937 | 2114 ft | 163 kts | 22° |
| 2026-05-05 08:59 | 15.11323 | 120.53344 | 1896 ft | 162 kts | 23° |
| 2026-05-05 08:59 | 15.12362 | 120.53768 | 1645 ft | 159 kts | 20° |
| 2026-05-05 08:59 | 15.13423 | 120.54175 | 1409 ft | 166 kts | 21° |
| 2026-05-05 08:59 | 15.14528 | 120.54619 | 1204 ft | 165 kts | 24° |
| 2026-05-05 09:00 | 15.15544 | 120.55037 | 919 ft | 154 kts | 20° |
| 2026-05-05 09:00 | 15.16600 | 120.55454 | 685 ft | 163 kts | 22° |
| 2026-05-05 09:00 | 15.17655 | 120.55867 | 496 ft | 162 kts | 23° |
| 2026-05-05 09:00 | 15.18649 | 120.56257 | 449 ft | 128 kts | 19° |
| 2026-05-05 09:01 | 15.19192 | 120.56480 | 431 ft | 43 kts | 21° |
| 2026-05-05 09:01 | 15.19453 | 120.56581 | 425 ft | 35 kts | 21° |
| 2026-05-05 09:01 | 15.19696 | 120.56679 | 417 ft | 38 kts | 22° |
| 2026-05-05 09:01 | 15.19920 | 120.56767 | 413 ft | 27 kts | 20° |
| 2026-05-05 09:02 | 15.20068 | 120.56826 | 408 ft | 15 kts | 21° |
| 2026-05-05 09:02 | 15.20155 | 120.56778 | 408 ft | 17 kts | 287° |
| 2026-05-05 09:02 | 15.20147 | 120.56657 | 413 ft | 16 kts | 260° |
| 2026-05-05 09:02 | 15.20109 | 120.56548 | 418 ft | 16 kts | 217° |
| 2026-05-05 09:03 | 15.19999 | 120.56504 | 421 ft | 17 kts | 197° |
| 2026-05-05 09:03 | 15.19889 | 120.56458 | 425 ft | 17 kts | 203° |
| 2026-05-05 09:03 | 15.19773 | 120.56407 | 428 ft | 18 kts | 202° |
| 2026-05-05 09:03 | 15.19647 | 120.56358 | 433 ft | 19 kts | 200° |
| 2026-05-05 09:04 | 15.19512 | 120.56306 | 435 ft | 21 kts | 200° |
| 2026-05-05 09:04 | 15.19371 | 120.56252 | 440 ft | 22 kts | 200° |
| 2026-05-05 09:04 | 15.19220 | 120.56192 | 444 ft | 23 kts | 201° |
| 2026-05-05 09:04 | 15.19099 | 120.56141 | 448 ft | 8 kts | 215° |
| 2026-05-05 09:05 | 15.19095 | 120.56094 | 450 ft | 7 kts | 285° |
| 2026-05-05 09:05 | 15.19105 | 120.56042 | 452 ft | 7 kts | 261° |
| 2026-05-05 09:05 | 15.19068 | 120.56004 | 454 ft | 8 kts | 201° |
| 2026-05-05 09:05 | 15.19008 | 120.55980 | 456 ft | 10 kts | 200° |
| 2026-05-05 09:06 | 15.18926 | 120.55949 | 460 ft | 14 kts | 200° |
| 2026-05-05 09:06 | 15.18883 | 120.55899 | 462 ft | 9 kts | 277° |
| 2026-05-05 09:06 | 15.18904 | 120.55836 | 465 ft | 9 kts | 290° |
| 2026-05-05 09:06 | 15.18929 | 120.55768 | 467 ft | 11 kts | 290° |
| 2026-05-05 09:07 | 15.18957 | 120.55687 | 471 ft | 7 kts | 280° |
| 2026-05-05 09:07 | 15.18936 | 120.55652 | 473 ft | 6 kts | 205° |
| 2026-05-05 09:07 | 15.18890 | 120.55631 | 475 ft | 8 kts | 202° |
| 2026-05-05 09:07 | 15.18826 | 120.55604 | 478 ft | 11 kts | 202° |
| 2026-05-05 09:08 | 15.18746 | 120.55571 | 481 ft | 12 kts | 200° |
| 2026-05-05 09:08 | 15.18642 | 120.55532 | 482 ft | 19 kts | 199° |
| 2026-05-05 09:08 | 15.18616 | 120.55454 | 487 ft | 12 kts | 293° |
| 2026-05-05 09:08 | 15.18650 | 120.55370 | 491 ft | 12 kts | 292° |
| 2026-05-05 09:09 | 15.18682 | 120.55291 | 495 ft | 11 kts | 292° |
| 2026-05-05 09:09 | 15.18712 | 120.55214 | 499 ft | 11 kts | 291° |
| 2026-05-05 09:09 | 15.18714 | 120.55152 | 502 ft | 7 kts | 229° |
| 2026-05-05 09:09 | 15.18669 | 120.55154 | 502 ft | 8 kts | 131° |
| 2026-05-05 09:10 | 15.18657 | 120.55178 | 502 ft | 0 kts | 111° |